createdAt,value
2018-09-06T00:04:00.000Z,98669
2018-09-06T00:09:00.000Z,98670
2018-09-06T00:14:00.000Z,98665
2018-09-06T00:19:00.000Z,98665
2018-09-06T00:24:00.000Z,98666
2018-09-06T00:29:00.000Z,98664
2018-09-06T00:34:00.000Z,98658
2018-09-06T00:39:00.000Z,98651
2018-09-06T00:44:00.000Z,98660
2018-09-06T00:49:00.000Z,98656
2018-09-06T00:54:00.000Z,98656
2018-09-06T00:59:00.000Z,98658
2018-09-06T01:04:00.000Z,98649
2018-09-06T01:09:00.000Z,98644
2018-09-06T01:14:00.000Z,98641
2018-09-06T01:19:00.000Z,98648
2018-09-06T01:24:00.000Z,98648
2018-09-06T01:29:00.000Z,98643
2018-09-06T01:34:00.000Z,98637
2018-09-06T01:39:00.000Z,98634
2018-09-06T01:44:00.000Z,98629
2018-09-06T01:49:00.000Z,98634
2018-09-06T01:54:00.000Z,98623
2018-09-06T01:59:00.000Z,98631
2018-09-06T02:04:00.000Z,98628
2018-09-06T02:09:00.000Z,98622
2018-09-06T02:14:00.000Z,98618
2018-09-06T02:19:00.000Z,98624
2018-09-06T02:24:00.000Z,98609
2018-09-06T02:29:00.000Z,98597
2018-09-06T02:34:00.000Z,98610
2018-09-06T02:39:00.000Z,98598
2018-09-06T02:44:00.000Z,98593
2018-09-06T02:49:00.000Z,98591
2018-09-06T02:54:00.000Z,98588
2018-09-06T02:59:00.000Z,98585
2018-09-06T03:04:00.000Z,98590
2018-09-06T03:09:00.000Z,98591
2018-09-06T03:14:00.000Z,98587
2018-09-06T03:19:00.000Z,98587
2018-09-06T03:24:00.000Z,98592
2018-09-06T03:29:00.000Z,98586
2018-09-06T03:34:00.000Z,98603
2018-09-06T03:39:00.000Z,98598
2018-09-06T03:44:00.000Z,98591
2018-09-06T03:49:00.000Z,98594
2018-09-06T03:54:00.000Z,98596
2018-09-06T03:59:00.000Z,98585
2018-09-06T04:04:00.000Z,98595
2018-09-06T04:10:00.000Z,98593
2018-09-06T04:15:00.000Z,98602
2018-09-06T04:20:00.000Z,98602
2018-09-06T04:25:00.000Z,98600
2018-09-06T04:30:00.000Z,98607
2018-09-06T04:35:00.000Z,98609
2018-09-06T04:40:00.000Z,98612
2018-09-06T04:45:00.000Z,98607
2018-09-06T04:50:00.000Z,98618
2018-09-06T04:55:00.000Z,98624
2018-09-06T05:00:00.000Z,98624
2018-09-06T05:05:00.000Z,98619
2018-09-06T05:10:00.000Z,98625
2018-09-06T05:15:00.000Z,98625
2018-09-06T05:20:00.000Z,98628
2018-09-06T05:25:00.000Z,98635
2018-09-06T05:30:00.000Z,98625
2018-09-06T05:35:00.000Z,98626
2018-09-06T05:40:00.000Z,98626
2018-09-06T05:45:00.000Z,98626
2018-09-06T05:50:00.000Z,98632
2018-09-06T05:55:00.000Z,98619
2018-09-06T06:00:00.000Z,98626
2018-09-06T06:05:00.000Z,98625
2018-09-06T06:10:00.000Z,98626
2018-09-06T06:15:00.000Z,98621
2018-09-06T06:20:00.000Z,98628
2018-09-06T06:25:00.000Z,98624
2018-09-06T06:30:00.000Z,98613
2018-09-06T06:35:00.000Z,98612
2018-09-06T06:40:00.000Z,98620
2018-09-06T06:45:00.000Z,98614
2018-09-06T06:50:00.000Z,98616
2018-09-06T06:55:00.000Z,98618
2018-09-06T07:00:00.000Z,98612
2018-09-06T07:05:00.000Z,98620
2018-09-06T07:10:00.000Z,98621
2018-09-06T07:15:00.000Z,98623
2018-09-06T07:20:00.000Z,98631
2018-09-06T07:25:00.000Z,98633
2018-09-06T07:30:00.000Z,98631
2018-09-06T07:35:00.000Z,98632
2018-09-06T07:40:00.000Z,98629
2018-09-06T07:45:00.000Z,98633
2018-09-06T07:50:00.000Z,98627
2018-09-06T07:55:00.000Z,98635
2018-09-06T08:00:00.000Z,98623
2018-09-06T08:05:00.000Z,98625
2018-09-06T08:10:00.000Z,98620
2018-09-06T08:15:00.000Z,98628
2018-09-06T08:20:00.000Z,98633
2018-09-06T08:25:00.000Z,98634
2018-09-06T08:30:00.000Z,98632
2018-09-06T08:35:00.000Z,98643
2018-09-06T08:40:00.000Z,98638
2018-09-06T08:45:00.000Z,98643
2018-09-06T08:50:00.000Z,98620
2018-09-06T08:55:00.000Z,98626
2018-09-06T09:00:00.000Z,98630
2018-09-06T09:05:00.000Z,98622
2018-09-06T09:10:00.000Z,98623
2018-09-06T09:15:00.000Z,98619
2018-09-06T09:20:00.000Z,98606
2018-09-06T09:26:00.000Z,98597
2018-09-06T09:31:00.000Z,98602
2018-09-06T09:36:00.000Z,98610
2018-09-06T09:41:00.000Z,98598
2018-09-06T09:51:00.000Z,98594
2018-09-06T09:56:00.000Z,98595
2018-09-06T10:01:00.000Z,98583
2018-09-06T10:06:00.000Z,98584
2018-09-06T10:11:00.000Z,98569
2018-09-06T10:16:00.000Z,98566
2018-09-06T10:21:00.000Z,98563
2018-09-06T10:26:00.000Z,98551
2018-09-06T10:31:00.000Z,98543
2018-09-06T10:36:00.000Z,98544
2018-09-06T10:41:00.000Z,98543
2018-09-06T10:46:00.000Z,98538
2018-09-06T10:51:00.000Z,98532
2018-09-06T10:56:00.000Z,98527
2018-09-06T11:01:00.000Z,98525
2018-09-06T11:06:00.000Z,98521
2018-09-06T11:11:00.000Z,98517
2018-09-06T11:16:00.000Z,98511
2018-09-06T11:21:00.000Z,98509
2018-09-06T11:26:00.000Z,98505
2018-09-06T11:31:00.000Z,98503
2018-09-06T11:36:00.000Z,98504
2018-09-06T11:41:00.000Z,98494
2018-09-06T11:46:00.000Z,98491
2018-09-06T11:51:00.000Z,98486
2018-09-06T11:56:00.000Z,98490
2018-09-06T12:01:00.000Z,98484
2018-09-06T12:06:00.000Z,98484
2018-09-06T12:11:00.000Z,98477
2018-09-06T12:16:00.000Z,98480
2018-09-06T12:21:00.000Z,98470
2018-09-06T12:26:00.000Z,98467
2018-09-06T12:31:00.000Z,98463
2018-09-06T12:36:00.000Z,98458
2018-09-06T12:41:00.000Z,98448
2018-09-06T12:46:00.000Z,98456
2018-09-06T12:51:00.000Z,98448
2018-09-06T12:56:00.000Z,98444
2018-09-06T13:01:00.000Z,98435
2018-09-06T13:06:00.000Z,98429
2018-09-06T13:11:00.000Z,98427
2018-09-06T13:16:00.000Z,98422
2018-09-06T13:21:00.000Z,98416
2018-09-06T13:26:00.000Z,98420
2018-09-06T13:31:00.000Z,98420
2018-09-06T13:36:00.000Z,98412
2018-09-06T13:41:00.000Z,98403
2018-09-06T13:46:00.000Z,98400
2018-09-06T13:51:00.000Z,98398
2018-09-06T13:56:00.000Z,98394
2018-09-06T14:01:00.000Z,98384
2018-09-06T14:06:00.000Z,98379
2018-09-06T14:11:00.000Z,98382
2018-09-06T14:16:00.000Z,98374
2018-09-06T14:21:00.000Z,98360
2018-09-06T14:26:00.000Z,98358
2018-09-06T14:31:00.000Z,98352
2018-09-06T14:36:00.000Z,98346
2018-09-06T14:41:00.000Z,98344
2018-09-06T14:46:00.000Z,98346
2018-09-06T14:51:00.000Z,98341
2018-09-06T14:56:00.000Z,98343
2018-09-06T15:01:00.000Z,98336
2018-09-06T15:06:00.000Z,98334
2018-09-06T15:11:00.000Z,98328
2018-09-06T15:16:00.000Z,98328
2018-09-06T15:22:00.000Z,98334
2018-09-06T15:27:00.000Z,98325
2018-09-06T15:32:00.000Z,98317
2018-09-06T15:37:00.000Z,98300
2018-09-06T15:42:00.000Z,98317
2018-09-06T15:47:00.000Z,98304
2018-09-06T15:52:00.000Z,98306
2018-09-06T15:57:00.000Z,98302
2018-09-06T16:02:00.000Z,98290
2018-09-06T16:07:00.000Z,98279
2018-09-06T16:12:00.000Z,98282
2018-09-06T16:17:00.000Z,98286
2018-09-06T16:22:00.000Z,98280
2018-09-06T16:27:00.000Z,98273
2018-09-06T16:32:00.000Z,98280
2018-09-06T16:37:00.000Z,98282
2018-09-06T16:42:00.000Z,98290
2018-09-06T16:47:00.000Z,98289
2018-09-06T16:52:00.000Z,98291
2018-09-06T16:57:00.000Z,98293
2018-09-06T17:02:00.000Z,98297
2018-09-06T17:07:00.000Z,98280
2018-09-06T17:12:00.000Z,98292
2018-09-06T17:17:00.000Z,98296
2018-09-06T17:22:00.000Z,98303
2018-09-06T17:27:00.000Z,98294
2018-09-06T17:32:00.000Z,98291
2018-09-06T17:37:00.000Z,98298
2018-09-06T17:42:00.000Z,98299
2018-09-06T17:47:00.000Z,98299
2018-09-06T17:52:00.000Z,98301
2018-09-06T17:57:00.000Z,98316
2018-09-06T18:02:00.000Z,98308
2018-09-06T18:07:00.000Z,98309
2018-09-06T18:12:00.000Z,98303
2018-09-06T18:17:00.000Z,98305
2018-09-06T18:22:00.000Z,98307
2018-09-06T18:27:00.000Z,98303
2018-09-06T18:32:00.000Z,98312
2018-09-06T18:37:00.000Z,98314
2018-09-06T18:42:00.000Z,98317
2018-09-06T18:47:00.000Z,98316
2018-09-06T18:52:00.000Z,98305
2018-09-06T18:57:00.000Z,98324
2018-09-06T19:02:00.000Z,98319
2018-09-06T19:07:00.000Z,98321
2018-09-06T19:12:00.000Z,98327
2018-09-06T19:17:00.000Z,98325
2018-09-06T19:22:00.000Z,98327
2018-09-06T19:27:00.000Z,98329
2018-09-06T19:32:00.000Z,98317
2018-09-06T19:37:00.000Z,98322
2018-09-06T19:42:00.000Z,98325
2018-09-06T19:47:00.000Z,98324
2018-09-06T19:52:00.000Z,98324
2018-09-06T19:57:00.000Z,98320
2018-09-06T20:02:00.000Z,98318
2018-09-06T20:07:00.000Z,98315
2018-09-06T20:12:00.000Z,98327
2018-09-06T20:17:00.000Z,98325
2018-09-06T20:28:00.000Z,98326
2018-09-06T20:33:00.000Z,98314
2018-09-06T20:50:00.000Z,98320
2018-09-06T20:55:00.000Z,98312
2018-09-06T21:00:00.000Z,98316
2018-09-06T21:05:00.000Z,98314
2018-09-06T21:10:00.000Z,98317
2018-09-06T21:15:00.000Z,98312
2018-09-06T21:20:00.000Z,98307
2018-09-06T21:25:00.000Z,98298
2018-09-06T21:30:00.000Z,98305
2018-09-06T21:35:00.000Z,98297
2018-09-06T21:40:00.000Z,98300
2018-09-06T21:45:00.000Z,98292
2018-09-06T21:50:00.000Z,98287
2018-09-06T21:55:00.000Z,98290
2018-09-06T22:00:00.000Z,98283
2018-09-06T22:05:00.000Z,98284
2018-09-06T22:10:00.000Z,98285
2018-09-06T22:15:00.000Z,98284
2018-09-06T22:25:00.000Z,98269
2018-09-06T22:30:00.000Z,98267
2018-09-06T22:35:00.000Z,98275
2018-09-06T22:40:00.000Z,98269
2018-09-06T22:45:00.000Z,98264
2018-09-06T22:50:00.000Z,98269
2018-09-06T22:55:00.000Z,98268
2018-09-06T23:00:00.000Z,98261
2018-09-06T23:05:00.000Z,98257
2018-09-06T23:10:00.000Z,98260
2018-09-06T23:15:00.000Z,98260
2018-09-06T23:20:00.000Z,98271
2018-09-06T23:25:00.000Z,98258
2018-09-06T23:31:00.000Z,98257
2018-09-06T23:36:00.000Z,98257
2018-09-06T23:41:00.000Z,98256
2018-09-06T23:46:00.000Z,98248
2018-09-06T23:51:00.000Z,98246
2018-09-06T23:56:00.000Z,98246
